createdAt,value
2019-05-02T00:03:04.539Z,11.60
2019-05-02T00:06:15.951Z,11.90
2019-05-02T00:09:30.174Z,11.67
2019-05-02T00:12:44.278Z,12.67
2019-05-02T00:15:58.630Z,12.87
2019-05-02T00:19:13.897Z,12.90
2019-05-02T00:22:28.358Z,12.40
2019-05-02T00:25:41.947Z,13.57
2019-05-02T00:28:55.949Z,14.33
2019-05-02T00:32:09.662Z,14.53
2019-05-02T00:35:23.242Z,14.60
2019-05-02T00:38:38.482Z,13.60
2019-05-02T00:41:52.553Z,14.40
2019-05-02T00:45:06.464Z,14.97
2019-05-02T00:48:42.706Z,15.17
2019-05-02T00:52:00.896Z,16.63
2019-05-02T00:55:12.611Z,16.63
2019-05-02T00:58:27.236Z,15.87
2019-05-02T01:01:52.334Z,15.43
2019-05-02T01:05:06.235Z,15.03
2019-05-02T01:08:19.750Z,15.67
2019-05-02T01:11:33.369Z,15.57
2019-05-02T01:14:46.883Z,16.47
2019-05-02T01:18:01.080Z,17.90
2019-05-02T01:24:45.750Z,17.30
2019-05-02T01:28:17.966Z,17.67
2019-05-02T01:31:38.707Z,16.97
2019-05-02T01:35:00.541Z,18.30
2019-05-02T01:38:33.681Z,17.57
2019-05-02T01:41:47.703Z,16.47
2019-05-02T01:45:01.286Z,18.13
2019-05-02T01:48:14.897Z,18.77
2019-05-02T01:51:28.476Z,20.23
2019-05-02T01:54:45.856Z,19.03
2019-05-02T01:57:57.401Z,19.63
2019-05-02T02:01:10.918Z,17.97
2019-05-02T02:04:24.396Z,18.73
2019-05-02T02:07:37.906Z,18.40
2019-05-02T02:10:56.239Z,20.00
2019-05-02T02:14:12.182Z,18.90
2019-05-02T02:17:23.010Z,21.13
2019-05-02T02:20:49.060Z,20.57
2019-05-02T02:24:07.821Z,20.57
2019-05-02T02:27:24.601Z,21.83
2019-05-02T02:30:36.936Z,21.57
2019-05-02T02:33:50.815Z,22.20
2019-05-02T02:37:12.164Z,21.43
2019-05-02T02:40:20.089Z,22.53
2019-05-02T02:43:35.009Z,24.70
2019-05-02T02:46:48.909Z,21.63
2019-05-02T02:50:05.358Z,23.60
2019-05-02T02:53:28.998Z,21.80
2019-05-02T02:56:42.858Z,22.13
2019-05-02T03:00:06.752Z,23.30
2019-05-02T03:03:12.230Z,21.83
2019-05-02T03:06:25.938Z,22.10
2019-05-02T03:09:39.554Z,22.53
2019-05-02T03:13:15.068Z,24.63
2019-05-02T03:16:28.417Z,23.63
2019-05-02T03:19:42.026Z,23.40
2019-05-02T03:22:55.717Z,25.00
2019-05-02T03:26:15.006Z,24.83
2019-05-02T03:29:24.955Z,26.83
2019-05-02T03:32:38.564Z,24.47
2019-05-02T03:35:52.169Z,23.40
2019-05-02T03:39:13.492Z,24.93
2019-05-02T03:42:22.188Z,24.73
2019-05-02T03:45:40.071Z,24.83
2019-05-02T03:48:52.049Z,24.53
2019-05-02T03:52:06.208Z,24.20
2019-05-02T03:55:23.742Z,25.07
2019-05-02T03:58:35.731Z,25.07
2019-05-02T04:01:49.666Z,25.60
2019-05-02T04:05:03.890Z,27.03
2019-05-02T04:08:20.778Z,28.00
2019-05-02T04:11:38.976Z,27.07
2019-05-02T04:14:55.303Z,25.70
2019-05-02T04:18:08.367Z,28.77
2019-05-02T04:21:24.520Z,29.00
2019-05-02T04:24:36.602Z,27.17
2019-05-02T04:27:50.196Z,27.30
2019-05-02T04:31:03.796Z,24.87
2019-05-02T04:34:17.905Z,27.10
2019-05-02T04:37:34.384Z,27.63
2019-05-02T04:40:49.581Z,28.27
2019-05-02T04:44:02.998Z,28.03
2019-05-02T04:47:20.876Z,26.90
2019-05-02T04:50:32.597Z,26.30
2019-05-02T04:53:49.558Z,28.87
2019-05-02T04:57:02.710Z,30.43
2019-05-02T05:00:21.061Z,29.37
2019-05-02T05:03:34.822Z,29.10
2019-05-02T05:06:56.210Z,34.70
2019-05-02T05:10:04.246Z,33.23
2019-05-02T05:16:34.393Z,31.63
2019-05-02T05:19:48.742Z,30.80
2019-05-02T05:23:02.464Z,32.33
2019-05-02T05:26:17.520Z,32.00
2019-05-02T05:29:31.331Z,35.37
2019-05-02T05:32:45.123Z,32.60
2019-05-02T05:35:58.630Z,31.23
2019-05-02T05:39:12.138Z,33.10
2019-05-02T05:42:30.109Z,34.23
2019-05-02T05:45:53.486Z,34.60
2019-05-02T05:49:18.404Z,35.17
2019-05-02T05:52:28.450Z,37.37
2019-05-02T05:55:41.974Z,36.27
2019-05-02T05:58:58.967Z,35.30
2019-05-02T06:02:14.574Z,37.20
2019-05-02T06:05:27.647Z,35.40
2019-05-02T06:08:41.693Z,33.63
2019-05-02T06:11:55.635Z,34.93
2019-05-02T06:15:10.728Z,37.07
2019-05-02T06:18:24.319Z,35.20
2019-05-02T06:21:40.071Z,35.10
2019-05-02T06:24:53.300Z,38.53
2019-05-02T06:28:07.024Z,35.10
2019-05-02T06:31:20.480Z,38.53
2019-05-02T06:34:38.747Z,40.23
2019-05-02T06:37:50.335Z,41.87
2019-05-02T06:41:05.137Z,41.73
2019-05-02T06:44:23.717Z,44.93
2019-05-02T06:47:35.934Z,43.80
2019-05-02T06:50:50.024Z,45.93
2019-05-02T06:54:04.056Z,48.80
2019-05-02T06:57:19.098Z,51.77
2019-05-02T07:00:38.439Z,48.50
2019-05-02T07:03:48.779Z,54.83
2019-05-02T07:07:02.857Z,54.93
2019-05-02T07:10:20.140Z,54.03
2019-05-02T07:13:36.190Z,53.77
2019-05-02T07:17:05.674Z,53.60
2019-05-02T07:20:19.288Z,53.63
2019-05-02T07:23:32.806Z,54.50
2019-05-02T07:26:47.005Z,53.57
2019-05-02T07:30:00.954Z,53.33
2019-05-02T07:33:14.449Z,53.80
2019-05-02T07:36:31.188Z,52.40
2019-05-02T07:39:43.954Z,53.67
2019-05-02T07:42:57.538Z,53.47
2019-05-02T07:46:11.237Z,53.30
2019-05-02T07:49:26.538Z,52.10
2019-05-02T07:52:41.228Z,51.43
2019-05-02T07:55:54.937Z,54.13
2019-05-02T07:59:09.295Z,53.70
2019-05-02T08:02:25.035Z,54.20
2019-05-02T08:05:38.189Z,55.00
2019-05-02T08:08:51.769Z,56.03
2019-05-02T08:12:05.461Z,51.27
2019-05-02T08:15:19.149Z,54.27
2019-05-02T08:18:32.733Z,49.30
2019-05-02T08:21:46.230Z,52.87
2019-05-02T08:25:00.041Z,50.57
2019-05-02T08:28:21.626Z,49.00
2019-05-02T08:31:35.118Z,49.80
2019-05-02T08:34:51.653Z,48.53
2019-05-02T08:38:04.582Z,48.10
2019-05-02T08:41:19.924Z,45.97
2019-05-02T08:44:34.076Z,40.20
2019-05-02T08:47:47.586Z,36.27
2019-05-02T08:51:01.194Z,37.57
2019-05-02T08:54:15.052Z,33.30
2019-05-02T08:57:30.080Z,42.97
2019-05-02T09:00:47.002Z,42.33
2019-05-02T09:03:59.899Z,42.60
2019-05-02T09:07:13.452Z,40.97
2019-05-02T09:10:27.148Z,41.43
2019-05-02T09:13:42.166Z,41.20
2019-05-02T09:17:00.296Z,36.90
2019-05-02T09:20:18.744Z,39.67
2019-05-02T09:23:27.665Z,37.67
2019-05-02T09:26:43.717Z,36.83
2019-05-02T09:29:57.245Z,36.27
2019-05-02T09:33:11.755Z,35.93
2019-05-02T09:36:25.405Z,37.50
2019-05-02T09:39:38.999Z,37.10
2019-05-02T09:42:57.479Z,38.57
2019-05-02T09:46:12.798Z,38.07
2019-05-02T09:49:23.850Z,35.83
2019-05-02T09:52:39.542Z,37.37
2019-05-02T09:55:57.307Z,39.30
2019-05-02T09:59:24.308Z,40.23
2019-05-02T10:02:25.313Z,39.23
2019-05-02T10:05:39.031Z,37.50
2019-05-02T10:08:53.067Z,41.07
2019-05-02T10:12:07.094Z,40.70
2019-05-02T10:15:22.211Z,40.07
2019-05-02T10:18:35.883Z,40.60
2019-05-02T10:21:52.458Z,41.83
2019-05-02T10:25:06.133Z,41.53
2019-05-02T10:28:19.892Z,40.87
2019-05-02T10:31:37.669Z,40.10
2019-05-02T10:34:53.133Z,38.03
2019-05-02T10:38:04.373Z,37.40
2019-05-02T10:41:17.979Z,39.53
2019-05-02T10:44:32.703Z,39.27
2019-05-02T10:47:46.894Z,35.63
2019-05-02T10:51:18.718Z,37.93
2019-05-02T10:54:33.711Z,36.00
2019-05-02T10:57:48.884Z,35.80
2019-05-02T11:01:03.847Z,36.80
2019-05-02T11:04:17.532Z,36.33
2019-05-02T11:07:32.649Z,35.03
2019-05-02T11:10:46.822Z,35.27
2019-05-02T11:14:13.633Z,32.00
2019-05-02T11:17:32.445Z,34.70
2019-05-02T11:20:46.138Z,31.77
2019-05-02T11:24:02.185Z,32.67
2019-05-02T11:27:15.293Z,29.80
2019-05-02T11:30:29.031Z,31.97
2019-05-02T11:33:42.680Z,29.37
2019-05-02T11:36:56.494Z,30.20
2019-05-02T11:40:12.581Z,29.07
2019-05-02T11:43:26.046Z,26.83
2019-05-02T11:46:42.906Z,26.13
2019-05-02T11:49:56.002Z,26.27
2019-05-02T11:53:23.293Z,27.13
2019-05-02T11:56:25.250Z,26.73
2019-05-02T11:59:38.776Z,25.63
2019-05-02T12:03:14.776Z,25.00
2019-05-02T12:06:29.239Z,25.17
2019-05-02T12:09:44.328Z,23.53
2019-05-02T12:16:34.645Z,21.90
2019-05-02T12:19:48.386Z,20.87
2019-05-02T12:23:02.188Z,20.07
2019-05-02T12:26:15.778Z,19.53
2019-05-02T12:29:29.567Z,20.20
2019-05-02T12:32:43.383Z,21.63
2019-05-02T12:35:57.670Z,19.30
2019-05-02T12:39:12.645Z,20.87
2019-05-02T12:42:27.025Z,22.03
2019-05-02T12:45:42.119Z,20.90
2019-05-02T12:48:56.060Z,21.63
2019-05-02T12:52:09.604Z,21.30
2019-05-02T12:55:23.253Z,21.70
2019-05-02T12:58:37.047Z,21.80
2019-05-02T13:01:51.806Z,20.97
2019-05-02T13:05:05.748Z,22.57
2019-05-02T13:08:19.312Z,21.70
2019-05-02T13:11:42.152Z,20.37
2019-05-02T13:14:54.047Z,21.37
2019-05-02T13:18:07.784Z,21.07
2019-05-02T13:21:38.704Z,19.03
2019-05-02T13:24:54.140Z,19.90
2019-05-02T13:28:03.643Z,18.27
2019-05-02T13:31:42.811Z,19.00
2019-05-02T13:35:03.195Z,21.23
2019-05-02T13:38:19.581Z,19.53
2019-05-02T13:41:33.118Z,20.60
2019-05-02T13:44:54.073Z,21.00
2019-05-02T13:48:07.782Z,19.83
2019-05-02T13:51:22.279Z,23.37
2019-05-02T13:54:36.812Z,21.77
2019-05-02T13:57:50.425Z,22.20
2019-05-02T14:01:04.404Z,22.53
2019-05-02T14:04:18.130Z,21.40
2019-05-02T14:07:32.665Z,19.87
2019-05-02T14:10:47.903Z,21.53
2019-05-02T14:14:01.948Z,22.37
2019-05-02T14:17:15.857Z,21.80
2019-05-02T14:20:29.602Z,20.53
2019-05-02T14:23:43.337Z,19.53
2019-05-02T14:26:56.983Z,20.67
2019-05-02T14:30:12.206Z,19.67
2019-05-02T14:33:27.717Z,20.30
2019-05-02T14:36:42.347Z,18.03
2019-05-02T14:40:04.243Z,18.37
2019-05-02T14:43:43.006Z,18.50
2019-05-02T14:46:52.363Z,18.17
2019-05-02T14:50:06.407Z,17.47
2019-05-02T14:53:22.152Z,17.70
2019-05-02T14:56:55.515Z,16.13
2019-05-02T15:00:09.557Z,15.17
2019-05-02T15:03:24.575Z,15.07
2019-05-02T15:06:45.469Z,15.17
2019-05-02T15:09:57.134Z,13.83
2019-05-02T15:13:09.933Z,13.50
2019-05-02T15:16:33.392Z,12.33
2019-05-02T15:19:39.360Z,11.67
2019-05-02T15:22:52.873Z,11.50
2019-05-02T15:26:06.613Z,11.10
2019-05-02T15:29:25.088Z,11.33
2019-05-02T15:33:02.948Z,10.47
2019-05-02T15:36:17.057Z,11.10
2019-05-02T15:42:47.086Z,10.50
2019-05-02T15:46:02.011Z,10.30
2019-05-02T15:49:15.637Z,11.10
2019-05-02T15:52:32.621Z,9.33
2019-05-02T15:55:46.336Z,9.70
2019-05-02T15:59:03.417Z,10.10
2019-05-02T16:02:22.823Z,10.63
2019-05-02T16:05:36.553Z,9.93
2019-05-02T16:08:49.359Z,10.07
2019-05-02T16:12:03.546Z,9.93
2019-05-02T16:15:21.467Z,10.00
2019-05-02T16:18:36.019Z,9.90
2019-05-02T16:22:06.268Z,10.93
2019-05-02T16:25:20.036Z,10.37
2019-05-02T16:28:36.950Z,10.73
2019-05-02T16:32:09.924Z,10.97
2019-05-02T16:35:24.568Z,10.93
2019-05-02T16:38:38.062Z,10.90
2019-05-02T16:41:52.958Z,11.40
2019-05-02T16:45:08.198Z,12.83
2019-05-02T16:48:22.209Z,13.70
2019-05-02T16:51:37.631Z,13.87
2019-05-02T16:54:52.647Z,13.50
2019-05-02T16:58:07.373Z,12.40
2019-05-02T17:01:27.189Z,14.63
2019-05-02T17:04:36.899Z,12.40
2019-05-02T17:08:10.778Z,20.50
2019-05-02T17:11:33.648Z,19.10
2019-05-02T17:15:03.611Z,18.40
2019-05-02T17:18:18.242Z,16.27
2019-05-02T17:21:52.447Z,16.97
2019-05-02T17:24:48.220Z,17.70
2019-05-02T17:28:08.278Z,17.93
2019-05-02T17:31:20.424Z,25.50
2019-05-02T17:34:34.995Z,19.53
2019-05-02T17:37:49.104Z,17.27
2019-05-02T17:41:07.703Z,23.60
2019-05-02T17:44:22.109Z,17.03
2019-05-02T17:47:36.208Z,16.43
2019-05-02T17:51:09.371Z,16.17
2019-05-02T17:54:26.256Z,18.20
2019-05-02T17:57:38.506Z,15.20
2019-05-02T18:00:56.916Z,17.80
2019-05-02T18:04:12.660Z,17.33
2019-05-02T18:07:31.897Z,16.83
2019-05-02T18:10:41.886Z,21.80
2019-05-02T18:13:55.546Z,17.47
2019-05-02T18:17:09.246Z,19.47
2019-05-02T18:20:25.281Z,20.03
2019-05-02T18:23:38.464Z,18.57
2019-05-02T18:26:52.063Z,19.60
2019-05-02T18:30:06.791Z,20.03
2019-05-02T18:33:22.541Z,20.07
2019-05-02T18:36:36.336Z,21.43
2019-05-02T18:39:55.261Z,20.97
2019-05-02T18:43:05.836Z,22.77
2019-05-02T18:46:20.014Z,23.13
2019-05-02T18:49:33.834Z,23.73
2019-05-02T18:52:48.098Z,23.97
2019-05-02T18:56:03.641Z,25.00
2019-05-02T18:59:19.746Z,24.47
2019-05-02T19:02:35.683Z,26.27
2019-05-02T19:05:51.509Z,24.10
2019-05-02T19:09:09.058Z,24.33
2019-05-02T19:12:25.996Z,24.63
2019-05-02T19:15:39.516Z,22.90
2019-05-02T19:18:57.278Z,22.67
2019-05-02T19:22:13.361Z,22.87
2019-05-02T19:25:25.095Z,22.17
2019-05-02T19:29:02.502Z,21.20
2019-05-02T19:32:17.057Z,21.00
2019-05-02T19:35:32.794Z,22.13
2019-05-02T19:38:46.994Z,20.93
2019-05-02T19:42:01.787Z,20.43
2019-05-02T19:45:16.896Z,19.37
2019-05-02T19:48:33.025Z,20.43
2019-05-02T19:51:50.552Z,20.43
2019-05-02T19:55:01.951Z,20.10
2019-05-02T19:58:15.642Z,20.27
2019-05-02T20:01:29.660Z,20.17
2019-05-02T20:04:44.330Z,20.60
2019-05-02T20:07:58.047Z,20.00
2019-05-02T20:11:12.615Z,19.63
2019-05-02T20:14:26.278Z,20.03
2019-05-02T20:17:41.665Z,20.17
2019-05-02T20:21:23.492Z,18.80
2019-05-02T20:24:55.265Z,18.57
2019-05-02T20:28:06.944Z,16.33
2019-05-02T20:31:21.696Z,13.83
2019-05-02T20:34:35.667Z,12.60
2019-05-02T20:37:49.161Z,12.47
2019-05-02T20:41:03.094Z,11.83
2019-05-02T20:44:16.774Z,9.23
2019-05-02T20:47:30.457Z,8.60
2019-05-02T20:50:44.051Z,7.40
2019-05-02T20:53:57.641Z,7.83
2019-05-02T20:57:12.020Z,8.00
2019-05-02T21:00:27.849Z,8.30
2019-05-02T21:03:42.714Z,7.87
2019-05-02T21:07:10.602Z,7.07
2019-05-02T21:10:27.830Z,5.60
2019-05-02T21:16:34.044Z,9.60
2019-05-02T21:19:47.566Z,6.67
2019-05-02T21:23:01.990Z,4.60
2019-05-02T21:26:15.650Z,5.03
2019-05-02T21:29:29.271Z,4.73
2019-05-02T21:32:42.953Z,3.77
2019-05-02T21:35:56.530Z,3.27
2019-05-02T21:39:11.878Z,3.43
2019-05-02T21:42:25.713Z,3.50
2019-05-02T21:45:39.450Z,3.40
2019-05-02T21:48:52.925Z,3.50
2019-05-02T21:52:29.188Z,3.57
2019-05-02T21:55:52.071Z,3.50
2019-05-02T21:59:12.232Z,3.10
2019-05-02T22:02:26.336Z,3.20
2019-05-02T22:05:42.279Z,3.30
2019-05-02T22:08:55.832Z,3.27
2019-05-02T22:12:09.544Z,3.27
2019-05-02T22:15:23.051Z,3.00
2019-05-02T22:18:36.546Z,3.20
2019-05-02T22:21:52.265Z,3.20
2019-05-02T22:25:05.958Z,3.33
2019-05-02T22:28:19.556Z,2.90
2019-05-02T22:31:33.278Z,3.20
2019-05-02T22:34:46.757Z,3.10
2019-05-02T22:38:07.814Z,3.00
2019-05-02T22:41:22.138Z,2.90
2019-05-02T22:44:35.792Z,2.90
2019-05-02T22:47:49.274Z,3.33
2019-05-02T22:51:03.214Z,3.10
2019-05-02T22:54:26.675Z,3.10
2019-05-02T22:57:32.586Z,3.50
2019-05-02T23:00:46.276Z,3.90
2019-05-02T23:04:01.950Z,3.87
2019-05-02T23:07:15.780Z,3.93
2019-05-02T23:10:29.463Z,4.07
2019-05-02T23:13:43.049Z,3.73
2019-05-02T23:16:56.746Z,4.17
2019-05-02T23:20:12.674Z,4.70
2019-05-02T23:23:26.142Z,4.50
2019-05-02T23:27:05.380Z,4.30
2019-05-02T23:30:22.561Z,4.57
2019-05-02T23:33:54.512Z,4.60
2019-05-02T23:37:08.204Z,4.67
2019-05-02T23:40:22.166Z,4.60
2019-05-02T23:43:35.985Z,4.97
2019-05-02T23:46:51.505Z,4.37
2019-05-02T23:50:05.366Z,4.90
2019-05-02T23:53:19.192Z,5.40
2019-05-02T23:56:32.689Z,4.80
2019-05-02T23:59:46.152Z,4.60
